createdAt,value
2018-11-11T00:01:38.990Z,10.82
2018-11-11T00:04:08.817Z,10.73
2018-11-11T00:06:38.989Z,10.75
2018-11-11T00:09:09.842Z,10.73
2018-11-11T00:11:39.330Z,10.50
2018-11-11T00:14:09.137Z,10.59
2018-11-11T00:16:39.674Z,10.54
2018-11-11T00:19:09.382Z,10.60
2018-11-11T00:21:39.472Z,10.57
2018-11-11T00:24:09.321Z,10.68
2018-11-11T00:26:38.790Z,10.66
2018-11-11T00:29:08.526Z,10.58
2018-11-11T00:31:38.593Z,10.49
2018-11-11T00:34:08.092Z,10.26
2018-11-11T00:36:37.889Z,10.35
2018-11-11T00:39:10.081Z,10.34
2018-11-11T00:41:40.178Z,10.30
2018-11-11T00:44:09.859Z,10.30
2018-11-11T00:46:39.321Z,10.43
2018-11-11T00:49:09.293Z,10.33
2018-11-11T00:51:39.111Z,10.35
2018-11-11T00:54:08.674Z,10.39
2018-11-11T00:56:38.619Z,10.35
2018-11-11T00:59:08.216Z,10.29
2018-11-11T01:01:38.183Z,10.31
2018-11-11T01:04:08.423Z,10.33
2018-11-11T01:06:37.857Z,10.33
2018-11-11T01:09:08.254Z,10.31
2018-11-11T01:11:38.074Z,10.15
2018-11-11T01:14:07.617Z,10.15
2018-11-11T01:16:37.120Z,10.20
2018-11-11T01:19:07.234Z,10.25
2018-11-11T01:21:37.286Z,10.32
2018-11-11T01:24:06.748Z,10.20
2018-11-11T01:26:36.263Z,10.27
2018-11-11T01:29:05.953Z,10.15
2018-11-11T01:31:35.808Z,9.99
2018-11-11T01:34:05.738Z,10.07
2018-11-11T01:36:35.169Z,10.04
2018-11-11T01:39:05.157Z,9.99
2018-11-11T01:41:34.605Z,9.96
2018-11-11T01:44:04.075Z,10.03
2018-11-11T01:46:33.568Z,10.03
2018-11-11T01:49:03.014Z,10.06
2018-11-11T01:51:32.795Z,10.17
2018-11-11T01:54:02.859Z,10.25
2018-11-11T01:56:32.702Z,10.22
2018-11-11T01:59:02.152Z,10.22
2018-11-11T02:01:32.145Z,10.27
2018-11-11T02:04:02.075Z,10.27
2018-11-11T02:06:31.550Z,10.26
2018-11-11T02:09:01.612Z,10.11
2018-11-11T02:11:31.376Z,10.14
2018-11-11T02:14:01.911Z,10.28
2018-11-11T02:16:31.680Z,10.18
2018-11-11T02:19:01.117Z,10.12
2018-11-11T02:21:30.984Z,10.14
2018-11-11T02:24:01.156Z,10.16
2018-11-11T02:26:30.934Z,10.17
2018-11-11T02:29:00.778Z,10.22
2018-11-11T02:31:30.563Z,10.17
2018-11-11T02:34:01.070Z,10.12
2018-11-11T02:36:30.844Z,10.07
2018-11-11T02:39:00.647Z,10.05
2018-11-11T02:41:30.572Z,10.15
2018-11-11T02:44:00.990Z,10.07
2018-11-11T02:46:30.437Z,10.04
2018-11-11T02:49:00.167Z,10.08
2018-11-11T02:51:29.957Z,10.16
2018-11-11T02:53:59.729Z,10.17
2018-11-11T02:56:29.538Z,10.39
2018-11-11T02:58:59.286Z,10.46
2018-11-11T03:01:29.073Z,10.53
2018-11-11T03:03:58.564Z,10.48
2018-11-11T03:06:28.002Z,10.32
2018-11-11T03:08:57.860Z,10.51
2018-11-11T03:11:27.633Z,10.62
2018-11-11T03:13:57.415Z,10.52
2018-11-11T03:16:27.394Z,10.60
2018-11-11T03:18:57.194Z,10.53
2018-11-11T03:21:26.981Z,10.72
2018-11-11T03:23:57.123Z,10.81
2018-11-11T03:26:26.962Z,10.88
2018-11-11T03:28:56.422Z,10.90
2018-11-11T03:31:26.771Z,10.92
2018-11-11T03:33:56.927Z,10.73
2018-11-11T03:36:26.681Z,10.87
2018-11-11T03:38:56.191Z,10.86
2018-11-11T03:41:25.681Z,10.90
2018-11-11T03:43:55.685Z,10.96
2018-11-11T03:46:25.495Z,10.92
2018-11-11T03:48:55.274Z,10.83
2018-11-11T03:51:25.150Z,10.93
2018-11-11T03:54:13.845Z,10.97
2018-11-11T03:56:43.668Z,11.05
2018-11-11T03:59:13.457Z,10.84
2018-11-11T04:01:43.177Z,10.72
2018-11-11T04:04:13.212Z,10.62
2018-11-11T04:07:01.371Z,10.49
2018-11-11T04:09:49.517Z,10.52
2018-11-11T04:12:19.723Z,10.39
2018-11-11T04:14:49.484Z,10.28
2018-11-11T04:17:23.227Z,10.30
2018-11-11T04:19:53.333Z,10.37
2018-11-11T04:22:23.508Z,10.44
2018-11-11T04:24:53.997Z,10.45
2018-11-11T04:27:42.715Z,10.49
2018-11-11T04:30:31.184Z,10.37
2018-11-11T04:33:01.349Z,10.42
2018-11-11T04:35:31.424Z,10.28
2018-11-11T04:38:01.244Z,10.29
2018-11-11T04:40:31.362Z,10.30
2018-11-11T04:43:01.479Z,10.18
2018-11-11T04:45:31.327Z,10.11
2018-11-11T04:48:00.813Z,10.05
2018-11-11T04:50:30.989Z,10.00
2018-11-11T04:53:00.799Z,9.98
2018-11-11T04:55:30.550Z,10.02
2018-11-11T04:58:00.373Z,9.89
2018-11-11T05:00:30.444Z,10.02
2018-11-11T05:03:00.606Z,10.09
2018-11-11T05:05:30.164Z,9.93
2018-11-11T05:07:59.617Z,9.81
2018-11-11T05:10:29.163Z,9.86
2018-11-11T05:12:59.272Z,9.84
2018-11-11T05:15:29.058Z,9.79
2018-11-11T05:17:58.561Z,9.97
2018-11-11T05:20:28.100Z,9.98
2018-11-11T05:22:57.641Z,10.09
2018-11-11T05:25:27.583Z,10.06
2018-11-11T05:28:16.098Z,10.06
2018-11-11T05:30:45.614Z,10.09
2018-11-11T05:33:16.017Z,10.20
2018-11-11T05:35:45.549Z,10.25
2018-11-11T05:38:15.258Z,10.16
2018-11-11T05:40:45.001Z,10.25
2018-11-11T05:43:14.788Z,10.38
2018-11-11T05:45:44.615Z,10.34
2018-11-11T05:48:14.551Z,10.40
2018-11-11T05:51:03.078Z,10.26
2018-11-11T05:53:51.176Z,10.14
2018-11-11T05:56:20.931Z,10.16
2018-11-11T05:59:09.031Z,10.21
2018-11-11T06:01:38.819Z,10.21
2018-11-11T06:04:08.587Z,10.06
2018-11-11T06:06:38.372Z,10.06
2018-11-11T06:09:10.563Z,10.11
2018-11-11T06:11:59.324Z,10.39
2018-11-11T06:14:29.453Z,10.44
2018-11-11T06:16:58.915Z,10.37
2018-11-11T06:19:28.697Z,10.43
2018-11-11T06:21:58.820Z,10.51
2018-11-11T06:24:47.518Z,10.50
2018-11-11T06:27:36.021Z,10.23
2018-11-11T06:30:05.888Z,10.18
2018-11-11T06:32:54.392Z,10.20
2018-11-11T06:35:23.882Z,10.13
2018-11-11T06:37:53.311Z,10.17
2018-11-11T06:40:23.017Z,10.18
2018-11-11T06:42:52.445Z,10.18
2018-11-11T06:45:21.907Z,10.18
2018-11-11T06:47:52.399Z,10.31
2018-11-11T06:50:40.704Z,10.54
2018-11-11T06:53:10.152Z,10.35
2018-11-11T06:55:39.614Z,10.56
2018-11-11T06:58:09.409Z,10.61
2018-11-11T07:00:38.823Z,10.75
2018-11-11T07:03:46.464Z,10.83
2018-11-11T07:06:15.981Z,10.85
2018-11-11T07:09:04.405Z,10.79
2018-11-11T07:11:33.921Z,10.79
2018-11-11T07:14:03.768Z,10.77
2018-11-11T07:16:33.161Z,10.70
2018-11-11T07:19:02.614Z,10.65
2018-11-11T07:21:32.442Z,10.72
2018-11-11T07:24:02.291Z,10.75
2018-11-11T07:26:32.351Z,10.86
2018-11-11T07:29:20.728Z,10.70
2018-11-11T07:31:50.984Z,10.73
2018-11-11T07:34:21.044Z,10.85
2018-11-11T07:36:50.886Z,10.92
2018-11-11T07:39:21.025Z,10.94
2018-11-11T07:41:50.756Z,10.90
2018-11-11T07:44:20.528Z,10.86
2018-11-11T07:47:08.918Z,10.94
2018-11-11T07:49:39.707Z,10.93
2018-11-11T07:52:28.360Z,10.95
2018-11-11T07:55:16.767Z,10.98
2018-11-11T07:57:46.588Z,10.98
2018-11-11T08:00:16.023Z,10.98
2018-11-11T08:02:46.042Z,11.05
2018-11-11T08:05:34.496Z,11.06
2018-11-11T08:08:04.527Z,11.10
2018-11-11T08:11:11.981Z,10.96
2018-11-11T08:14:00.289Z,10.95
2018-11-11T08:16:30.118Z,10.98
2018-11-11T08:18:59.876Z,10.97
2018-11-11T08:21:29.955Z,10.90
2018-11-11T08:24:00.243Z,10.84
2018-11-11T08:26:30.247Z,10.79
2018-11-11T08:29:00.136Z,10.81
2018-11-11T08:31:30.015Z,10.69
2018-11-11T08:34:00.603Z,10.62
2018-11-11T08:36:31.637Z,10.59
2018-11-11T08:39:01.948Z,10.68
2018-11-11T08:41:32.012Z,10.67
2018-11-11T08:44:01.503Z,10.64
2018-11-11T08:46:31.091Z,10.65
2018-11-11T08:49:00.827Z,10.64
2018-11-11T08:51:30.349Z,10.61
2018-11-11T08:54:00.260Z,10.57
2018-11-11T08:56:48.632Z,10.53
2018-11-11T08:59:36.763Z,10.61
2018-11-11T09:02:06.585Z,10.80
2018-11-11T09:04:36.106Z,11.13
2018-11-11T09:07:24.768Z,11.33
2018-11-11T09:09:54.287Z,11.55
2018-11-11T09:12:24.067Z,11.78
2018-11-11T09:14:54.259Z,11.76
2018-11-11T09:17:42.998Z,11.85
2018-11-11T09:20:13.383Z,11.89
2018-11-11T09:23:01.495Z,11.80
2018-11-11T09:25:49.883Z,11.81
2018-11-11T09:28:19.689Z,11.79
2018-11-11T09:31:08.891Z,11.67
2018-11-11T09:33:38.451Z,11.73
2018-11-11T09:36:08.714Z,11.73
2018-11-11T09:38:57.527Z,11.53
2018-11-11T09:41:26.882Z,11.44
2018-11-11T09:43:56.355Z,11.55
2018-11-11T09:46:26.497Z,11.56
2018-11-11T09:49:14.906Z,11.86
2018-11-11T09:51:44.608Z,12.08
2018-11-11T09:54:14.958Z,12.19
2018-11-11T09:56:44.246Z,12.36
2018-11-11T09:59:13.952Z,12.62
2018-11-11T10:02:02.437Z,12.50
2018-11-11T10:04:50.966Z,12.70
2018-11-11T10:07:39.044Z,12.62
2018-11-11T10:10:27.185Z,12.70
2018-11-11T10:13:15.581Z,12.99
2018-11-11T10:16:04.384Z,13.03
2018-11-11T10:18:53.136Z,13.32
2018-11-11T10:21:41.313Z,13.34
2018-11-11T10:24:23.537Z,13.32
2018-11-11T10:27:12.337Z,13.44
2018-11-11T10:30:00.398Z,13.54
2018-11-11T10:33:13.935Z,13.78
2018-11-11T10:36:21.309Z,14.03
2018-11-11T10:39:09.535Z,14.03
2018-11-11T10:42:16.578Z,14.37
2018-11-11T10:45:04.945Z,14.37
2018-11-11T10:47:53.133Z,14.24
2018-11-11T10:50:26.090Z,14.07
2018-11-11T10:52:56.503Z,14.07
2018-11-11T10:55:26.850Z,14.29
2018-11-11T10:57:57.018Z,14.48
2018-11-11T11:01:04.053Z,14.48
2018-11-11T11:03:52.611Z,14.52
2018-11-11T11:06:59.700Z,14.76
2018-11-11T11:09:48.462Z,15.04
2018-11-11T11:12:17.935Z,15.04
2018-11-11T11:14:47.419Z,15.20
2018-11-11T11:17:35.858Z,15.66
2018-11-11T11:20:06.053Z,15.66
2018-11-11T11:22:35.605Z,15.55
2018-11-11T11:25:24.402Z,15.51
2018-11-11T11:28:13.165Z,15.34
2018-11-11T11:30:43.037Z,15.34
2018-11-11T11:33:31.808Z,15.37
2018-11-11T11:36:20.210Z,15.42
2018-11-11T11:39:09.289Z,15.60
2018-11-11T11:41:57.720Z,15.60
2018-11-11T11:44:27.982Z,15.73
2018-11-11T11:47:16.403Z,15.56
2018-11-11T11:49:58.245Z,15.51
2018-11-11T11:52:27.723Z,15.51
2018-11-11T11:54:57.551Z,15.62
2018-11-11T11:57:45.945Z,15.59
2018-11-11T12:00:15.364Z,15.79
2018-11-11T12:03:03.816Z,15.73
2018-11-11T12:05:52.558Z,16.00
2018-11-11T12:08:22.547Z,16.00
2018-11-11T12:10:53.604Z,15.92
2018-11-11T12:13:42.306Z,16.20
2018-11-11T12:16:11.724Z,16.20
2018-11-11T12:18:42.145Z,16.11
2018-11-11T12:21:11.640Z,15.99
2018-11-11T12:24:00.835Z,15.97
2018-11-11T12:26:31.104Z,15.97
2018-11-11T12:29:20.237Z,15.70
2018-11-11T12:31:50.774Z,15.70
2018-11-11T12:34:38.865Z,15.80
2018-11-11T12:37:27.545Z,15.84
2018-11-11T12:39:57.534Z,15.96
2018-11-11T12:42:27.169Z,15.92
2018-11-11T12:44:57.307Z,15.96
2018-11-11T12:47:27.093Z,16.06
2018-11-11T12:50:17.997Z,15.91
2018-11-11T12:52:48.240Z,15.91
2018-11-11T12:55:18.106Z,16.02
2018-11-11T12:57:47.843Z,16.08
2018-11-11T13:00:35.974Z,15.89
2018-11-11T13:03:24.473Z,16.02
2018-11-11T13:05:53.893Z,16.09
2018-11-11T13:08:23.615Z,16.04
2018-11-11T13:10:53.326Z,16.11
2018-11-11T13:13:23.153Z,16.31
2018-11-11T13:15:53.462Z,15.89
2018-11-11T13:18:41.876Z,15.95
2018-11-11T13:21:11.322Z,15.89
2018-11-11T13:23:40.776Z,15.79
2018-11-11T13:26:10.220Z,16.21
2018-11-11T13:28:59.208Z,15.75
2018-11-11T13:31:29.393Z,15.75
2018-11-11T13:33:59.097Z,15.85
2018-11-11T13:36:48.115Z,15.68
2018-11-11T13:39:17.590Z,15.58
2018-11-11T13:42:06.056Z,15.67
2018-11-11T13:44:54.542Z,15.49
2018-11-11T13:47:24.648Z,15.49
2018-11-11T13:49:54.066Z,15.39
2018-11-11T13:52:42.504Z,15.39
2018-11-11T13:55:30.962Z,15.48
2018-11-11T13:58:00.762Z,15.51
2018-11-11T14:00:49.217Z,15.49
2018-11-11T14:03:19.276Z,15.44
2018-11-11T14:06:07.749Z,15.45
2018-11-11T14:08:37.190Z,15.49
2018-11-11T14:11:25.557Z,15.49
2018-11-11T14:14:13.997Z,15.45
2018-11-11T14:16:44.066Z,15.45
2018-11-11T14:19:32.548Z,15.52
2018-11-11T14:22:02.579Z,15.52
2018-11-11T14:24:32.054Z,15.57
2018-11-11T14:27:01.496Z,15.36
2018-11-11T14:29:31.540Z,15.33
2018-11-11T14:32:01.038Z,15.15
2018-11-11T14:34:31.121Z,15.15
2018-11-11T14:37:19.913Z,15.14
2018-11-11T14:39:50.496Z,15.21
2018-11-11T14:42:19.892Z,15.39
2018-11-11T14:44:50.133Z,15.35
2018-11-11T14:47:20.473Z,15.52
2018-11-11T14:49:49.941Z,15.54
2018-11-11T14:52:38.554Z,15.44
2018-11-11T14:55:31.688Z,15.31
2018-11-11T14:58:20.191Z,14.92
2018-11-11T15:01:08.534Z,14.92
2018-11-11T15:03:56.946Z,14.64
2018-11-11T15:06:26.718Z,14.67
2018-11-11T15:09:15.165Z,14.73
2018-11-11T15:12:03.590Z,14.65
2018-11-11T15:14:33.033Z,14.65
2018-11-11T15:17:02.880Z,14.39
2018-11-11T15:19:32.972Z,14.39
2018-11-11T15:22:02.313Z,14.34
2018-11-11T15:24:50.801Z,14.17
2018-11-11T15:27:20.736Z,14.05
2018-11-11T15:30:10.856Z,14.11
2018-11-11T15:32:40.351Z,14.08
2018-11-11T15:35:29.555Z,13.81
2018-11-11T15:37:59.105Z,13.81
2018-11-11T15:40:47.249Z,13.60
2018-11-11T15:43:17.064Z,13.51
2018-11-11T15:45:46.479Z,13.50
2018-11-11T15:48:15.909Z,13.59
2018-11-11T15:50:45.770Z,13.56
2018-11-11T15:53:15.552Z,13.41
2018-11-11T15:55:45.470Z,13.21
2018-11-11T15:58:15.257Z,13.00
2018-11-11T16:01:03.623Z,12.97
2018-11-11T16:03:52.071Z,12.95
2018-11-11T16:06:40.429Z,12.81
2018-11-11T16:09:10.903Z,12.70
2018-11-11T16:11:59.040Z,12.61
2018-11-11T16:14:28.481Z,12.54
2018-11-11T16:16:57.952Z,12.50
2018-11-11T16:19:27.769Z,12.57
2018-11-11T16:21:57.286Z,12.46
2018-11-11T16:24:27.028Z,12.45
2018-11-11T16:26:56.447Z,12.45
2018-11-11T16:29:25.927Z,12.42
2018-11-11T16:31:55.758Z,12.32
2018-11-11T16:34:25.789Z,12.34
2018-11-11T16:36:55.288Z,12.21
2018-11-11T16:39:43.760Z,12.05
2018-11-11T16:42:13.465Z,12.00
2018-11-11T16:44:42.952Z,11.90
2018-11-11T16:47:12.410Z,11.85
2018-11-11T16:49:41.873Z,11.93
2018-11-11T16:52:30.279Z,11.95
2018-11-11T16:55:20.387Z,12.00
2018-11-11T16:57:49.978Z,11.96
2018-11-11T17:00:20.849Z,11.95
2018-11-11T17:02:51.249Z,11.94
2018-11-11T17:05:39.761Z,11.96
2018-11-11T17:08:09.852Z,11.90
2018-11-11T17:10:39.617Z,11.92
2018-11-11T17:13:13.561Z,11.82
2018-11-11T17:15:43.354Z,11.84
2018-11-11T17:18:31.801Z,11.78
2018-11-11T17:21:01.340Z,11.74
2018-11-11T17:23:30.996Z,11.74
2018-11-11T17:26:00.425Z,11.58
2018-11-11T17:28:29.897Z,11.51
2018-11-11T17:30:59.340Z,11.52
2018-11-11T17:33:29.232Z,11.49
2018-11-11T17:35:59.738Z,11.56
2018-11-11T17:38:29.880Z,11.56
2018-11-11T17:41:18.001Z,11.45
2018-11-11T17:43:47.945Z,11.39
2018-11-11T17:46:18.734Z,11.38
2018-11-11T17:48:48.594Z,11.32
2018-11-11T17:51:18.042Z,11.31
2018-11-11T17:53:47.492Z,11.25
2018-11-11T17:56:36.251Z,11.28
2018-11-11T17:59:06.192Z,11.38
2018-11-11T18:01:35.906Z,11.28
2018-11-11T18:04:05.705Z,11.23
2018-11-11T18:06:35.778Z,11.31
2018-11-11T18:09:07.205Z,11.57
2018-11-11T18:11:44.197Z,11.52
2018-11-11T18:14:14.234Z,11.35
2018-11-11T18:16:43.631Z,11.44
2018-11-11T18:19:13.097Z,11.60
2018-11-11T18:21:43.145Z,11.56
2018-11-11T18:24:13.732Z,11.48
2018-11-11T18:26:43.187Z,11.48
2018-11-11T18:29:12.950Z,11.56
2018-11-11T18:32:01.445Z,11.87
2018-11-11T18:34:49.860Z,11.89
2018-11-11T18:37:19.635Z,11.62
2018-11-11T18:39:49.167Z,11.57
2018-11-11T18:42:19.392Z,11.78
2018-11-11T18:44:48.796Z,11.85
2018-11-11T18:47:18.596Z,11.70
2018-11-11T18:50:07.040Z,11.70
2018-11-11T18:52:37.279Z,11.92
2018-11-11T18:55:25.747Z,11.90
2018-11-11T18:58:14.730Z,11.98
2018-11-11T19:00:44.187Z,11.91
2018-11-11T19:03:33.071Z,12.00
2018-11-11T19:06:02.522Z,11.81
2018-11-11T19:08:32.764Z,11.80
2018-11-11T19:11:02.368Z,11.73
2018-11-11T19:13:50.743Z,11.57
2018-11-11T19:16:20.626Z,11.53
2018-11-11T19:18:50.521Z,11.56
2018-11-11T19:21:20.508Z,11.61
2018-11-11T19:23:50.482Z,11.68
2018-11-11T19:26:20.155Z,11.90
2018-11-11T19:28:49.617Z,11.87
2018-11-11T19:31:19.368Z,11.84
2018-11-11T19:34:07.773Z,11.95
2018-11-11T19:36:37.658Z,11.92
2018-11-11T19:39:28.535Z,11.96
2018-11-11T19:42:17.002Z,11.95
2018-11-11T19:44:46.924Z,11.94
2018-11-11T19:47:35.464Z,11.96
2018-11-11T19:50:04.941Z,11.97
2018-11-11T19:52:53.469Z,11.96
2018-11-11T19:55:23.313Z,11.96
2018-11-11T19:57:52.794Z,12.01
2018-11-11T20:00:41.636Z,12.02
2018-11-11T20:03:30.409Z,12.17
2018-11-11T20:06:19.186Z,12.18
2018-11-11T20:08:48.969Z,12.32
2018-11-11T20:11:37.501Z,12.37
2018-11-11T20:14:07.506Z,12.43
2018-11-11T20:16:37.928Z,12.44
2018-11-11T20:19:07.687Z,12.36
2018-11-11T20:21:37.485Z,12.38
2018-11-11T20:24:07.395Z,12.41
2018-11-11T20:26:36.946Z,12.45
2018-11-11T20:29:06.931Z,12.47
2018-11-11T20:31:37.117Z,12.49
2018-11-11T20:34:07.030Z,12.41
2018-11-11T20:36:36.485Z,12.51
2018-11-11T20:39:09.444Z,12.41
2018-11-11T20:41:57.906Z,12.37
2018-11-11T20:44:27.456Z,12.40
2018-11-11T20:47:16.523Z,12.32
2018-11-11T20:49:46.735Z,12.27
2018-11-11T20:52:16.376Z,12.15
2018-11-11T20:54:45.828Z,12.11
2018-11-11T20:57:15.355Z,11.98
2018-11-11T21:00:04.048Z,11.91
2018-11-11T21:02:33.499Z,11.89
2018-11-11T21:05:03.032Z,11.87
2018-11-11T21:07:33.228Z,11.97
2018-11-11T21:10:02.976Z,11.95
2018-11-11T21:12:33.466Z,12.09
2018-11-11T21:15:03.233Z,12.18
2018-11-11T21:17:33.353Z,12.24
2018-11-11T21:20:03.179Z,12.24
2018-11-11T21:22:32.975Z,12.24
2018-11-11T21:25:02.731Z,12.15
2018-11-11T21:27:32.506Z,12.13
2018-11-11T21:30:02.281Z,12.08
2018-11-11T21:32:51.625Z,12.11
2018-11-11T21:35:21.135Z,12.06
2018-11-11T21:37:51.447Z,11.84
2018-11-11T21:40:39.835Z,11.71
2018-11-11T21:43:09.267Z,11.59
2018-11-11T21:45:38.710Z,11.62
2018-11-11T21:48:26.864Z,11.47
2018-11-11T21:50:56.323Z,11.38
2018-11-11T21:53:45.787Z,11.37
2018-11-11T21:56:34.173Z,11.32
2018-11-11T21:59:03.612Z,11.41
2018-11-11T22:01:33.048Z,11.48
2018-11-11T22:04:21.788Z,11.48
2018-11-11T22:06:51.490Z,11.53
2018-11-11T22:09:21.680Z,11.49
2018-11-11T22:12:10.322Z,11.51
2018-11-11T22:14:40.046Z,11.68
2018-11-11T22:17:28.437Z,11.52
2018-11-11T22:19:58.800Z,11.48
2018-11-11T22:22:29.124Z,11.52
2018-11-11T22:24:58.470Z,11.56
2018-11-11T22:27:46.879Z,11.43
2018-11-11T22:30:34.987Z,11.41
2018-11-11T22:33:04.439Z,11.30
2018-11-11T22:35:33.907Z,11.36
2018-11-11T22:38:03.376Z,11.43
2018-11-11T22:40:52.409Z,11.37
2018-11-11T22:43:21.892Z,11.38
2018-11-11T22:46:11.222Z,11.40
2018-11-11T22:48:41.768Z,11.40
2018-11-11T22:51:30.144Z,11.35
2018-11-11T22:53:59.944Z,11.45
2018-11-11T22:56:29.417Z,11.50
2018-11-11T22:58:59.502Z,11.50
2018-11-11T23:01:29.227Z,11.48
2018-11-11T23:04:17.656Z,11.51
2018-11-11T23:06:47.459Z,11.56
2018-11-11T23:09:16.933Z,11.64
2018-11-11T23:11:46.601Z,11.82
2018-11-11T23:14:16.630Z,11.92
2018-11-11T23:16:46.068Z,12.00
2018-11-11T23:19:16.535Z,11.97
2018-11-11T23:21:45.972Z,11.92
2018-11-11T23:24:16.249Z,11.95
2018-11-11T23:26:46.049Z,11.96
2018-11-11T23:29:16.320Z,12.02
2018-11-11T23:31:46.301Z,12.06
2018-11-11T23:34:35.038Z,12.02
2018-11-11T23:37:23.166Z,12.09
2018-11-11T23:40:12.885Z,12.14
2018-11-11T23:42:43.570Z,12.07
2018-11-11T23:45:13.023Z,12.12
2018-11-11T23:48:01.715Z,12.30
2018-11-11T23:50:31.655Z,12.19
2018-11-11T23:53:01.920Z,12.34
2018-11-11T23:55:32.313Z,12.25
2018-11-11T23:58:02.068Z,12.30
